Aviation Digital Data Service (ADDS)

Output produced by METARs form (1256 UTC 30 May 2017)
found at http://aviationweather.gov/adds/metars/
 
KLAX 301123Z 3012/3118 14006KT P6SM OVC011 
     FM302100 25012KT P6SM BKN018 
     FM310300 25006KT P6SM OVC012 
     FM310800 VRB03KT P6SM OVC010 
     FM311500 14006KT P6SM OVC022